Lawton Fort Sill Regional Airport Lawton US
ICAO: KLAW
IATA: LAW
Category: Medium
Scheduled Services: No

Elevation: 1110 ft
TransAlt. 18000 ft.

Airport Communications:
FORT SILL APP/DEP:120.55
ATIS:120.75
CTAF:119.9
GND:121.9
TWR:119.9
UNICOM:122.95

KLAW Zoom In..

Runways:

(A) RW 17 length 8599 ft width 150 ft
---- / hdg 171

(B) RW 35 length 8599 ft width 150 ft
ILS 109.10 / hdg 351

Location; KLAW
Day. 20 / Time. 09.53 Zulu
* Altimeter: 30.26
* Temperature: 06° c. 42.8°f.
* Wind from: 050° Speed 07 kn.
Dewpoint: 01° c.
Visibility: 10 Statute Miles.
Clouds: Clear (automated report).

KLAW 200953Z AUTO 05007KT 10SM CLR 06/01 A3026 RMK AO2 SLP245 T00610011


Wind From 050°
Speed 07 kn.

  YouTube Music Video
 
jpsmedia.com for Web Design  worldairports.se 2018   terms of use